Time;durP1;ratioP1;P1;durP2;ratioP2;P2;SDS_P1;SDS_P2;PMS_P1;PMS_P2;Temp;Humidity;BMP_temperature;BMP_pressure;BME280_temperature;BME280_humidity;BME280_pressure;Samples;Min_cycle;Max_cycle;Signal;HPM_P1;HPM_P2
2022/07/17 00:01:08;;;;;;;6.10;2.67;;;;;;;12.28;82.24;100563.06;1684490;84;27326;-67
2022/07/17 00:03:34;;;;;;;4.55;2.30;;;;;;;12.28;82.49;100561.70;1687711;84;25621;-67
2022/07/17 00:06:01;;;;;;;4.20;2.50;;;;;;;12.27;82.17;100567.44;1685907;83;25621;-67
2022/07/17 00:08:27;;;;;;;3.62;2.35;;;;;;;12.27;82.34;100569.58;1685198;84;27395;-67
2022/07/17 00:10:53;;;;;;;2.87;1.90;;;;;;;12.24;82.47;100570.23;1683760;84;25413;-68
2022/07/17 00:13:19;;;;;;;4.15;2.40;;;;;;;12.23;82.36;100571.33;1685511;84;27304;-68
2022/07/17 00:15:45;;;;;;;8.43;2.70;;;;;;;12.21;82.35;100566.78;1685373;83;25642;-67
2022/07/17 00:18:11;;;;;;;5.62;2.17;;;;;;;12.19;82.49;100574.44;1685647;84;25597;-67
2022/07/17 00:20:38;;;;;;;2.55;2.22;;;;;;;12.17;82.60;100569.86;1683556;84;25550;-68
2022/07/17 00:23:04;;;;;;;3.85;2.33;;;;;;;12.17;82.68;100576.64;1685483;84;25626;-67
2022/07/17 00:25:32;;;;;;;5.35;3.30;;;;;;;12.16;82.78;100580.48;1682265;84;28028;-67
2022/07/17 00:27:58;;;;;;;2.70;2.40;;;;;;;12.15;82.99;100579.66;1689725;84;25456;-67
2022/07/17 00:30:24;;;;;;;5.50;2.15;;;;;;;12.16;82.99;100587.27;1684826;84;25558;-67
2022/07/17 00:32:50;;;;;;;4.15;2.12;;;;;;;12.17;83.10;100583.42;1684996;84;25610;-68
2022/07/17 00:35:17;;;;;;;4.03;2.17;;;;;;;12.18;83.07;100586.95;1682808;84;25475;-68
2022/07/17 00:37:46;;;;;;;4.00;1.87;;;;;;;12.20;83.09;100587.44;1689074;84;27366;-68
2022/07/17 00:40:20;;;;;;;6.40;2.27;;;;;;;12.21;83.19;100584.95;1689893;84;25624;-68
2022/07/17 00:42:47;;;;;;;4.08;1.90;;;;;;;12.22;83.25;100589.27;1689876;84;25404;-68
2022/07/17 00:45:14;;;;;;;4.05;2.25;;;;;;;12.25;83.42;100591.37;1688312;84;25585;-68
2022/07/17 00:48:02;;;;;;;3.27;1.95;;;;;;;12.25;83.24;100601.65;1682259;84;25483;-68
2022/07/17 00:50:33;;;;;;;2.83;2.08;;;;;;;12.26;83.28;100603.26;1685170;84;28315;-67
2022/07/17 00:53:00;;;;;;;3.20;1.90;;;;;;;12.27;83.48;100609.48;1686424;84;25622;-67
2022/07/17 00:55:27;;;;;;;4.58;1.95;;;;;;;12.28;83.39;100613.80;1686895;83;25609;-68
2022/07/17 00:57:56;;;;;;;4.55;1.90;;;;;;;12.28;83.30;100609.73;1685617;84;27483;-67
2022/07/17 01:00:23;;;;;;;2.25;1.92;;;;;;;12.29;83.38;100620.27;1683909;84;25590;-67
2022/07/17 01:02:53;;;;;;;3.50;2.15;;;;;;;12.30;83.41;100617.78;1684602;84;27358;-67
2022/07/17 01:05:21;;;;;;;3.72;2.42;;;;;;;12.33;83.57;100624.51;1686827;84;25602;-68
2022/07/17 01:07:48;;;;;;;5.30;2.52;;;;;;;12.35;83.48;100627.70;1686218;84;25642;-68
2022/07/17 01:10:17;;;;;;;3.70;1.90;;;;;;;12.37;83.47;100626.83;1683510;83;25634;-67
2022/07/17 01:12:45;;;;;;;6.08;2.30;;;;;;;12.39;83.39;100625.95;1681330;85;25661;-67
2022/07/17 01:15:14;;;;;;;3.37;1.60;;;;;;;12.40;83.50;100633.55;1681183;84;27324;-67
2022/07/17 01:17:42;;;;;;;3.95;2.22;;;;;;;12.39;83.23;100633.30;1680430;84;25578;-67
2022/07/17 01:20:11;;;;;;;4.22;2.17;;;;;;;12.36;83.15;100633.39;1680363;85;25437;-67
2022/07/17 01:22:49;;;;;;;4.62;2.10;;;;;;;12.33;83.02;100634.80;1697710;84;25584;-67
2022/07/17 01:25:20;;;;;;;5.72;2.27;;;;;;;12.31;82.90;100632.95;1703050;83;25502;-68
2022/07/17 01:27:46;;;;;;;2.77;1.82;;;;;;;12.28;82.81;100634.93;1702961;83;27266;-67
2022/07/17 01:30:13;;;;;;;2.02;1.72;;;;;;;12.27;82.81;100637.95;1690014;83;25647;-67
2022/07/17 01:32:41;;;;;;;2.47;2.02;;;;;;;12.23;82.79;100634.27;1680385;84;25640;-67
2022/07/17 01:35:11;;;;;;;6.85;2.20;;;;;;;12.22;82.90;100633.45;1680689;84;25560;-67
2022/07/17 01:37:39;;;;;;;;;;;;;;;12.20;82.91;100634.33;1698179;84;25684;-68
2022/07/17 01:40:08;;;;;;;4.83;2.05;;;;;;;12.18;83.00;100633.84;1703373;84;27910;-67
2022/07/17 01:42:35;;;;;;;8.78;2.10;;;;;;;12.14;82.98;100632.88;1703655;83;25634;-67
2022/07/17 01:45:01;;;;;;;4.12;2.10;;;;;;;12.10;82.92;100633.23;1692793;83;25420;-67
2022/07/17 01:47:28;;;;;;;3.50;2.30;;;;;;;12.08;82.98;100635.47;1702788;82;25464;-67
2022/07/17 01:49:57;;;;;;;1.98;1.80;;;;;;;12.05;82.89;100638.23;1703448;83;25417;-67
2022/07/17 01:52:25;;;;;;;4.20;2.33;;;;;;;12.03;82.90;100638.30;1703005;83;27388;-67
2022/07/17 01:54:52;;;;;;;4.08;2.25;;;;;;;12.01;83.17;100644.59;1703326;83;25623;-67
2022/07/17 01:57:20;;;;;;;6.20;2.15;;;;;;;11.99;83.29;100639.48;1694403;83;25625;-67
2022/07/17 01:59:46;;;;;;;2.50;1.95;;;;;;;11.98;83.37;100641.94;1702823;84;26080;-67
2022/07/17 02:02:17;;;;;;;6.87;2.90;;;;;;;11.98;83.69;100647.36;1684061;83;25649;-67
2022/07/17 02:04:45;;;;;;;2.47;2.27;;;;;;;11.98;83.84;100650.63;1696809;84;27154;-67
2022/07/17 02:07:12;;;;;;;6.70;2.40;;;;;;;12.00;84.17;100652.48;1700768;84;25640;-67
2022/07/17 02:09:38;;;;;;;5.62;3.02;;;;;;;11.99;84.08;100655.75;1697033;83;25659;-68
2022/07/17 02:12:06;;;;;;;3.25;2.02;;;;;;;11.99;84.11;100652.25;1681204;85;25557;-67
2022/07/17 02:14:32;;;;;;;4.28;2.40;;;;;;;12.00;84.25;100664.11;1681369;84;25612;-67
2022/07/17 02:16:59;;;;;;;3.05;2.10;;;;;;;12.01;84.08;100658.95;1682161;84;28091;-67
2022/07/17 02:19:25;;;;;;;5.78;1.87;;;;;;;11.99;83.99;100654.39;1683105;84;25920;-67
2022/07/17 02:21:52;;;;;;;4.17;2.30;;;;;;;12.00;83.85;100659.25;1682612;84;25629;-67
2022/07/17 02:24:19;;;;;;;4.58;2.05;;;;;;;11.98;83.87;100658.77;1682571;84;25582;-67
2022/07/17 02:26:45;;;;;;;6.45;2.20;;;;;;;11.96;83.82;100661.22;1681955;85;25412;-67
2022/07/17 02:29:12;;;;;;;4.05;2.10;;;;;;;11.94;83.64;100665.36;1681754;85;27381;-67
2022/07/17 02:31:38;;;;;;;2.62;2.02;;;;;;;11.92;83.71;100667.03;1682613;84;25464;-67
2022/07/17 02:34:04;;;;;;;3.67;2.47;;;;;;;11.90;83.61;100667.05;1683540;84;25583;-68
2022/07/17 02:36:30;;;;;;;2.98;2.10;;;;;;;11.89;83.91;100661.39;1682095;85;25568;-67
2022/07/17 02:38:57;;;;;;;4.47;2.40;;;;;;;11.85;83.73;100671.23;1681572;84;25467;-67
2022/07/17 02:41:23;;;;;;;6.25;2.25;;;;;;;11.84;83.83;100669.65;1681908;85;27914;-67
2022/07/17 02:43:49;;;;;;;4.60;2.30;;;;;;;11.82;84.16;100669.95;1649243;86;25488;-68
2022/07/17 02:46:15;;;;;;;5.67;2.65;;;;;;;11.80;83.98;100672.71;1652918;86;29620;-68
2022/07/17 02:48:45;;;;;;;7.30;2.50;;;;;;;11.80;84.27;100677.59;1652985;86;25596;-68
2022/07/17 02:51:11;;;;;;;;;;;;;;;11.78;84.49;100672.48;1655587;86;25450;-68
2022/07/17 02:53:37;;;;;;;7.85;2.58;;;;;;;11.80;84.66;100678.13;1653275;86;27389;-67
2022/07/17 02:56:04;;;;;;;7.53;3.37;;;;;;;11.82;84.96;100678.09;1653200;86;32942;-67
2022/07/17 02:58:30;;;;;;;3.27;2.85;;;;;;;11.82;85.09;100683.51;1653046;86;25603;-67
2022/07/17 03:00:56;;;;;;;5.20;3.70;;;;;;;11.84;85.29;100680.49;1652940;86;26050;-67
2022/07/17 03:03:22;;;;;;;7.50;3.83;;;;;;;11.86;85.47;100691.82;1653418;86;25465;-67
2022/07/17 03:05:48;;;;;;;7.70;3.60;;;;;;;11.89;85.48;100689.30;1652120;86;27414;-67
2022/07/17 03:08:15;;;;;;;5.17;4.05;;;;;;;11.92;85.52;100691.42;1652619;86;25787;-67
2022/07/17 03:10:41;;;;;;;7.72;4.10;;;;;;;11.95;85.73;100692.70;1668581;85;25465;-67
2022/07/17 03:13:07;;;;;;;6.42;4.53;;;;;;;11.98;85.64;100694.01;1680295;85;25417;-68
2022/07/17 03:15:33;;;;;;;6.40;4.40;;;;;;;12.00;85.60;100695.28;1680382;85;25455;-67
2022/07/17 03:17:59;;;;;;;7.60;3.80;;;;;;;12.02;85.69;100697.70;1680448;84;27618;-67
2022/07/17 03:20:28;;;;;;;5.67;4.20;;;;;;;12.05;85.60;100706.57;1680333;85;25696;-68
2022/07/17 03:22:54;;;;;;;6.97;4.60;;;;;;;12.09;85.82;100704.86;1680652;85;35041;-67
2022/07/17 03:25:20;;;;;;;6.35;4.20;;;;;;;12.12;85.70;100704.22;1680373;85;25597;-67
2022/07/17 03:27:46;;;;;;;8.53;4.50;;;;;;;12.14;85.57;100706.09;1680537;84;25640;-67
2022/07/17 03:30:12;;;;;;;6.45;4.62;;;;;;;12.19;85.61;100711.92;1680517;85;27403;-69
2022/07/17 03:32:38;;;;;;;8.80;4.58;;;;;;;12.20;85.52;100709.47;1680307;85;33156;-67
2022/07/17 03:35:07;;;;;;;5.55;4.10;;;;;;;12.20;85.59;100714.33;1680423;84;25651;-67
2022/07/17 03:37:33;;;;;;;7.40;4.75;;;;;;;12.22;85.39;100722.95;1680617;85;25624;-67
2022/07/17 03:39:59;;;;;;;6.17;4.10;;;;;;;12.25;85.51;100727.77;1680548;85;25469;-68
2022/07/17 03:42:25;;;;;;;9.03;4.53;;;;;;;12.28;85.68;100734.49;1680399;85;27318;-67
2022/07/17 03:44:52;;;;;;;7.33;4.87;;;;;;;12.32;85.81;100733.55;1680402;85;25822;-67
2022/07/17 03:47:18;;;;;;;5.95;4.40;;;;;;;12.37;85.85;100725.05;1680424;85;25400;-68
2022/07/17 03:49:44;;;;;;;7.20;3.90;;;;;;;12.43;85.86;100725.14;1680325;84;25579;-68
2022/07/17 03:52:10;;;;;;;6.15;4.03;;;;;;;12.47;85.80;100734.28;1680382;85;25388;-68
2022/07/17 03:54:36;;;;;;;12.53;4.42;;;;;;;12.53;85.99;100722.16;1680396;84;27290;-67
2022/07/17 03:57:02;;;;;;;5.67;3.85;;;;;;;12.60;86.09;100725.26;1680292;85;32832;-67
2022/07/17 03:59:29;;;;;;;8.13;4.45;;;;;;;12.67;85.86;100717.47;1680480;85;25404;-68
2022/07/17 04:01:56;;;;;;;6.83;3.67;;;;;;;12.75;85.68;100720.52;1680437;85;25984;-68
2022/07/17 04:04:22;;;;;;;7.20;4.20;;;;;;;12.78;85.50;100722.62;1680545;84;25477;-68
2022/07/17 04:06:48;;;;;;;7.05;3.75;;;;;;;12.81;85.11;100724.14;1680380;85;27343;-67
2022/07/17 04:09:14;;;;;;;3.83;3.30;;;;;;;12.83;84.86;100723.84;1680375;85;25634;-67
2022/07/17 04:11:41;;;;;;;6.12;3.40;;;;;;;12.88;85.06;100717.70;1668305;85;29771;-68
2022/07/17 04:14:07;;;;;;;5.62;3.27;;;;;;;12.95;85.06;100725.95;1680288;84;25575;-68
2022/07/17 04:16:33;;;;;;;9.95;3.62;;;;;;;13.01;84.81;100727.42;1680473;85;25567;-68
2022/07/17 04:18:59;;;;;;;5.22;3.20;;;;;;;13.07;84.70;100722.08;1680485;85;27421;-68
2022/07/17 04:21:25;;;;;;;4.78;3.30;;;;;;;13.14;84.67;100722.98;1680396;85;32813;-67
2022/07/17 04:23:51;;;;;;;5.60;3.25;;;;;;;13.21;84.62;100727.38;1680465;85;25484;-67
2022/07/17 04:26:17;;;;;;;5.67;3.12;;;;;;;13.25;84.26;100727.01;1680321;84;25436;-68
2022/07/17 04:28:44;;;;;;;7.20;3.12;;;;;;;13.27;83.80;100736.42;1680216;84;25490;-68
2022/07/17 04:31:10;;;;;;;5.47;2.90;;;;;;;13.29;83.78;100739.39;1680379;84;27314;-68
2022/07/17 04:33:36;;;;;;;7.22;3.17;;;;;;;13.30;83.50;100743.70;1680367;85;32763;-68
2022/07/17 04:36:03;;;;;;;6.97;3.72;;;;;;;13.31;83.30;100744.74;1680477;85;25639;-68
2022/07/17 04:38:29;;;;;;;5.35;2.55;;;;;;;13.32;83.03;100748.31;1680316;85;25539;-69
2022/07/17 04:40:55;;;;;;;5.30;3.12;;;;;;;13.33;83.10;100755.33;1680382;85;25453;-68
2022/07/17 04:43:21;;;;;;;7.45;3.20;;;;;;;13.32;82.93;100761.33;1680360;85;27554;-69
2022/07/17 04:45:47;;;;;;;4.78;3.37;;;;;;;13.34;83.29;100765.87;1680381;85;25570;-67
2022/07/17 04:48:14;;;;;;;4.62;2.92;;;;;;;13.33;82.83;100768.38;1680712;84;25438;-67
2022/07/17 04:50:40;;;;;;;4.62;2.90;;;;;;;13.34;83.07;100769.95;1680411;85;25484;-68
2022/07/17 04:53:07;;;;;;;4.90;3.58;;;;;;;13.33;82.69;100774.34;1680327;85;25417;-67
2022/07/17 04:55:33;;;;;;;4.80;2.87;;;;;;;13.36;82.83;100770.44;1680398;84;27303;-67
2022/07/17 04:57:59;;;;;;;4.50;3.35;;;;;;;13.40;82.88;100774.67;1680374;85;26964;-67
2022/07/17 05:00:26;;;;;;;4.37;2.98;;;;;;;13.41;82.67;100767.56;1680425;85;25409;-67
2022/07/17 05:02:53;;;;;;;6.00;2.62;;;;;;;13.44;82.58;100771.58;1680383;85;25641;-67
2022/07/17 05:05:20;;;;;;;4.60;3.27;;;;;;;13.42;82.20;100774.62;1680363;85;25480;-67
2022/07/17 05:07:46;;;;;;;3.42;2.87;;;;;;;13.40;82.13;100770.06;1680390;85;27415;-67
2022/07/17 05:10:12;;;;;;;8.28;3.37;;;;;;;13.38;81.98;100775.55;1681191;84;25971;-67
2022/07/17 05:12:38;;;;;;;5.97;2.70;;;;;;;13.40;82.15;100782.83;1686849;84;25529;-67
2022/07/17 05:15:26;;;;;;;5.15;3.20;;;;;;;13.41;82.24;100783.88;1685921;83;25634;-67
2022/07/17 05:17:52;;;;;;;7.28;3.05;;;;;;;13.42;82.34;100784.70;1673639;85;25438;-67
2022/07/17 05:20:18;;;;;;;11.10;3.10;;;;;;;13.47;82.49;100790.52;1673631;85;27404;-68
2022/07/17 05:22:44;;;;;;;8.55;3.33;;;;;;;13.47;82.48;100794.05;1673532;85;25772;-68
2022/07/17 05:25:10;;;;;;;6.12;3.30;;;;;;;13.44;82.36;100790.61;1673742;85;25580;-68
2022/07/17 05:27:36;;;;;;;4.60;3.27;;;;;;;13.44;82.36;100790.61;1673718;85;25993;-68
2022/07/17 05:30:05;;;;;;;6.55;3.58;;;;;;;13.48;82.40;100792.13;1673804;85;25494;-68
2022/07/17 05:32:31;;;;;;;5.07;3.50;;;;;;;13.53;82.75;100792.77;1674058;85;27370;-67
2022/07/17 05:34:57;;;;;;;4.65;2.72;;;;;;;13.66;83.47;100791.05;1673714;85;33215;-68
2022/07/17 05:37:23;;;;;;;4.37;3.60;;;;;;;13.83;84.14;100797.07;1673741;85;25651;-69
2022/07/17 05:39:49;;;;;;;6.28;3.25;;;;;;;14.03;84.47;100797.02;1673795;85;25542;-68
2022/07/17 05:42:15;;;;;;;7.20;3.33;;;;;;;14.20;84.14;100792.92;1673861;85;25470;-68
2022/07/17 05:44:41;;;;;;;5.33;3.47;;;;;;;14.35;83.44;100793.53;1673842;85;27373;-68
2022/07/17 05:47:07;;;;;;;5.70;4.33;;;;;;;14.43;82.61;100797.38;1673532;85;25588;-68
2022/07/17 05:49:33;;;;;;;5.67;3.25;;;;;;;14.50;82.23;100797.11;1673589;85;25651;-68
2022/07/17 05:51:59;;;;;;;6.60;3.60;;;;;;;14.64;82.13;100806.51;1673573;85;25564;-68
2022/07/17 05:54:25;;;;;;;5.62;3.10;;;;;;;14.84;82.74;100809.08;1686645;83;25437;-68
2022/07/17 05:56:52;;;;;;;5.08;3.10;;;;;;;15.04;82.36;100808.14;1724587;83;27407;-68
2022/07/17 05:59:18;;;;;;;5.50;2.85;;;;;;;15.19;81.36;100817.14;1682745;84;25457;-68
2022/07/17 06:01:44;;;;;;;8.45;3.27;;;;;;;15.28;80.23;100814.38;1682401;84;25404;-68
2022/07/17 06:04:10;;;;;;;5.85;3.22;;;;;;;15.40;80.49;100819.13;1682361;85;25420;-68
2022/07/17 06:06:36;;;;;;;5.17;2.90;;;;;;;15.49;79.42;100825.31;1682480;84;25209;-68
2022/07/17 06:09:03;;;;;;;5.03;3.05;;;;;;;15.55;79.10;100828.09;1724561;83;27548;-68
2022/07/17 06:11:29;;;;;;;7.12;4.12;;;;;;;15.56;77.71;100816.63;1724508;83;25587;-68
2022/07/17 06:13:55;;;;;;;7.30;3.42;;;;;;;15.56;78.08;100822.89;1724628;83;25632;-67
2022/07/17 06:16:21;;;;;;;4.28;2.80;;;;;;;15.65;77.85;100831.80;1673030;84;25474;-68
2022/07/17 06:18:47;;;;;;;5.28;3.27;;;;;;;15.72;77.69;100838.68;1680419;84;25469;-69
2022/07/17 06:21:13;;;;;;;6.42;2.90;;;;;;;15.82;77.96;100835.02;1680330;85;28142;-68
2022/07/17 06:23:39;;;;;;;6.33;3.05;;;;;;;15.99;77.91;100831.38;1680259;84;25600;-68
2022/07/17 06:26:05;;;;;;;5.25;3.12;;;;;;;16.22;78.06;100833.19;1680331;85;25455;-68
2022/07/17 06:28:31;;;;;;;4.45;2.50;;;;;;;16.45;77.51;100835.58;1668437;85;26286;-69
2022/07/17 06:30:58;;;;;;;6.25;2.65;;;;;;;16.58;76.49;100843.23;1680309;85;25483;-69
2022/07/17 06:33:24;;;;;;;2.55;1.98;;;;;;;16.78;76.53;100845.69;1680431;84;27431;-69
2022/07/17 06:35:51;;;;;;;4.45;2.08;;;;;;;16.92;75.39;100836.63;1680381;84;25556;-68
2022/07/17 06:38:17;;;;;;;5.28;2.20;;;;;;;17.10;74.23;100852.86;1680337;85;25588;-68
2022/07/17 06:40:43;;;;;;;6.05;2.08;;;;;;;17.17;72.18;100842.94;1680279;85;25615;-68
2022/07/17 06:43:09;;;;;;;3.40;2.10;;;;;;;17.34;73.46;100843.30;1680339;85;25478;-69
2022/07/17 06:45:35;;;;;;;4.05;1.85;;;;;;;17.59;73.08;100847.41;1680305;85;27362;-68
2022/07/17 06:48:02;;;;;;;6.05;2.17;;;;;;;17.85;73.00;100843.50;1680253;84;25619;-68
2022/07/17 06:50:28;;;;;;;5.33;2.00;;;;;;;18.09;71.76;100846.20;1680251;84;25601;-68
2022/07/17 06:52:55;;;;;;;10.00;1.80;;;;;;;18.23;69.70;100849.12;1668385;85;26288;-68
2022/07/17 06:55:21;;;;;;;10.20;5.47;;;;;;;18.21;69.45;100856.31;1680322;85;25611;-68
2022/07/17 06:57:47;;;;;;;4.12;2.10;;;;;;;18.19;69.63;100846.29;1680305;84;27306;-68
2022/07/17 07:00:18;;;;;;;7.25;2.40;;;;;;;18.36;70.07;100853.42;1680206;85;25631;-68
2022/07/17 07:02:43;;;;;;;9.80;1.92;;;;;;;18.58;69.37;100852.66;1680330;84;25431;-68
2022/07/17 07:05:10;;;;;;;4.42;1.82;;;;;;;18.81;69.34;100852.86;1680292;84;25636;-68
2022/07/17 07:07:36;;;;;;;5.28;2.00;;;;;;;19.07;68.51;100859.81;1680427;84;25451;-68
2022/07/17 07:10:04;;;;;;;3.65;1.95;;;;;;;19.33;68.39;100860.09;1680201;84;27316;-68
2022/07/17 07:12:30;;;;;;;6.08;2.15;;;;;;;19.65;67.61;100864.73;1680197;84;25467;-68
2022/07/17 07:14:56;;;;;;;2.72;1.60;;;;;;;19.92;66.96;100864.39;1680301;85;25652;-68
2022/07/17 07:17:22;;;;;;;6.40;1.70;;;;;;;20.10;66.51;100869.70;1681524;83;25557;-68
2022/07/17 07:19:48;;;;;;;3.10;1.90;;;;;;;20.36;65.47;100869.64;1682565;84;25620;-68
2022/07/17 07:22:14;;;;;;;4.03;1.90;;;;;;;20.41;64.24;100872.69;1682516;84;27325;-68
2022/07/17 07:24:40;;;;;;;6.40;1.90;;;;;;;20.51;64.29;100867.98;1690458;84;25546;-68
2022/07/17 07:27:07;;;;;;;5.62;1.50;;;;;;;20.59;62.98;100879.91;1702440;84;25558;-69
2022/07/17 07:29:33;;;;;;;4.17;1.82;;;;;;;20.68;62.96;100877.75;1702463;84;25618;-69
2022/07/17 07:32:00;;;;;;;4.87;1.85;;;;;;;20.73;61.73;100884.92;1702267;84;25634;-69
2022/07/17 07:34:26;;;;;;;5.03;1.82;;;;;;;20.87;61.44;100886.55;1703380;83;27309;-68
2022/07/17 07:36:52;;;;;;;7.20;1.75;;;;;;;21.07;60.94;100880.42;1702551;83;25716;-69
2022/07/17 07:39:19;;;;;;;5.83;1.42;;;;;;;21.10;60.79;100891.30;1694015;84;25645;-69
2022/07/17 07:41:45;;;;;;;4.67;1.57;;;;;;;21.14;61.13;100894.30;1687530;83;25692;-69
2022/07/17 07:44:12;;;;;;;6.37;2.02;;;;;;;21.20;60.33;100894.22;1682556;83;25685;-69
2022/07/17 07:46:38;;;;;;;16.25;8.98;;;;;;;21.20;59.81;100894.22;1682518;84;27369;-69
2022/07/17 07:49:04;;;;;;;18.55;9.60;;;;;;;21.36;60.26;100906.45;1682393;84;25560;-69
2022/07/17 07:51:30;;;;;;;8.40;2.42;;;;;;;21.61;60.77;100900.61;1682499;84;25567;-69
2022/07/17 07:53:56;;;;;;;7.10;2.20;;;;;;;21.93;60.37;100908.53;1682471;84;25803;-69
2022/07/17 07:56:23;;;;;;;3.10;1.60;;;;;;;21.91;58.02;100904.77;1682489;84;25617;-69
2022/07/17 07:58:49;;;;;;;8.08;2.65;;;;;;;21.96;58.65;100906.42;1682526;84;27363;-69
2022/07/17 08:01:15;;;;;;;3.00;1.27;;;;;;;22.07;58.94;100906.59;1682377;84;25560;-69
2022/07/17 08:03:41;;;;;;;7.05;2.25;;;;;;;22.34;58.57;100904.61;1682489;84;25587;-69
2022/07/17 08:06:07;;;;;;;2.60;1.95;;;;;;;22.65;56.64;100915.02;1682440;85;25616;-70
2022/07/17 08:08:33;;;;;;;8.85;1.95;;;;;;;22.34;55.90;100914.25;1682501;84;25671;-69
2022/07/17 08:10:59;;;;;;;6.37;1.95;;;;;;;22.01;55.66;100911.60;1682461;84;27403;-69
2022/07/17 08:13:25;;;;;;;4.70;2.08;;;;;;;21.82;56.61;100910.55;1682380;84;25615;-69
2022/07/17 08:15:52;;;;;;;6.08;1.87;;;;;;;21.78;56.56;100908.93;1682459;84;25607;-68
2022/07/17 08:18:18;;;;;;;5.90;2.05;;;;;;;22.20;59.17;100909.30;1711266;82;26334;-67
2022/07/17 08:20:44;;;;;;;2.47;2.12;;;;;;;22.83;58.50;100913.25;1717148;83;25532;-69
2022/07/17 08:23:10;;;;;;;5.45;2.80;;;;;;;22.93;57.05;100909.81;1717097;83;27384;-68
2022/07/17 08:25:36;;;;;;;4.25;2.08;;;;;;;22.80;56.06;100911.24;1717128;83;25555;-68
2022/07/17 08:28:05;;;;;;;3.87;2.12;;;;;;;22.85;55.84;100910.09;1717134;83;25544;-68
2022/07/17 08:30:34;;;;;;;4.20;2.07;;;;;;;22.52;54.03;100912.48;1717334;83;25672;-68
2022/07/17 08:32:59;;;;;;;3.02;1.85;;;;;;;22.09;54.00;100910.55;1716904;83;25564;-68
2022/07/17 08:35:25;;;;;;;6.62;2.37;;;;;;;21.92;54.38;100904.99;1717113;83;27383;-68
2022/07/17 08:37:53;;;;;;;3.65;1.90;;;;;;;21.94;55.50;100910.92;1717140;83;25869;-69
2022/07/17 08:40:23;;;;;;;2.22;1.92;;;;;;;22.23;56.25;100905.02;1717131;83;25501;-68
2022/07/17 08:42:51;;;;;;;5.83;1.82;;;;;;;22.58;56.75;100906.08;1716865;83;25693;-69
2022/07/17 08:45:17;;;;;;;4.15;2.33;;;;;;;23.08;56.68;100903.86;1717130;83;25485;-69
2022/07/17 08:47:44;;;;;;;4.03;1.40;;;;;;;23.61;56.08;100904.09;1717112;83;27367;-69
2022/07/17 08:50:12;;;;;;;6.58;2.37;;;;;;;24.23;55.36;100906.68;1716999;83;25647;-68
2022/07/17 08:52:41;;;;;;;3.12;1.75;;;;;;;24.68;54.31;100900.34;1717147;83;25606;-69
2022/07/17 08:55:14;;;;;;;5.95;1.77;;;;;;;25.06;52.19;100900.80;1717246;83;25683;-69
2022/07/17 08:57:44;;;;;;;1.90;1.55;;;;;;;25.19;50.58;100914.28;1717183;83;25425;-69
2022/07/17 09:00:12;;;;;;;;;;;;;;;25.43;51.37;100904.42;1719662;83;27394;-69
2022/07/17 09:03:02;;;;;;;2.53;1.43;;;;;;;25.97;49.15;100904.38;1717270;83;25498;-69
2022/07/17 09:05:32;;;;;;;3.65;1.80;;;;;;;26.24;48.37;100911.02;1717115;83;25584;-69
2022/07/17 09:07:59;;;;;;;4.65;1.55;;;;;;;26.48;48.57;100901.61;1717091;83;25686;-70
2022/07/17 09:10:40;;;;;;;4.40;1.90;;;;;;;26.56;47.08;100907.89;1717111;83;25634;-69
2022/07/17 09:13:23;;;;;;;4.90;2.25;;;;;;;26.26;46.13;100918.94;1717147;83;27406;-69
2022/07/17 09:15:53;;;;;;;4.35;1.60;;;;;;;25.95;46.29;100915.05;1717127;83;25503;-69
2022/07/17 09:18:19;;;;;;;;;;;;;;;26.15;46.70;100912.02;1697563;83;25571;-69
2022/07/17 09:20:55;;;;;;;3.67;1.50;;;;;;;26.18;45.80;100906.28;1684628;85;25660;-69
2022/07/17 09:23:25;;;;;;;1.90;1.40;;;;;;;26.21;46.30;100904.10;1684766;84;25405;-69
2022/07/17 09:25:54;;;;;;;2.12;1.50;;;;;;;25.93;45.72;100906.32;1684631;85;27383;-69
2022/07/17 09:28:22;;;;;;;4.00;1.85;;;;;;;25.35;44.94;100908.58;1684535;84;25681;-69
2022/07/17 09:30:53;;;;;;;4.20;1.47;;;;;;;25.19;46.80;100904.59;1684606;84;25604;-69
2022/07/17 09:33:26;;;;;;;2.45;1.00;;;;;;;25.40;45.97;100907.97;1684555;84;25684;-69
2022/07/17 09:35:57;;;;;;;4.30;1.00;;;;;;;25.12;44.74;100906.16;1684702;84;25592;-69
2022/07/17 09:38:36;;;;;;;3.87;1.55;;;;;;;24.77;45.25;100913.80;1684659;84;28022;-69
2022/07/17 09:41:18;;;;;;;3.55;1.10;;;;;;;24.61;45.13;100919.69;1684685;85;25635;-69
2022/07/17 09:43:57;;;;;;;5.33;1.45;;;;;;;24.29;44.82;100919.53;1684616;84;25660;-69
2022/07/17 09:46:28;;;;;;;2.60;1.12;;;;;;;24.02;45.80;100912.30;1684625;84;26537;-69
2022/07/17 09:49:02;;;;;;;6.37;1.37;;;;;;;24.65;45.65;100900.34;1684688;84;25416;-69
2022/07/17 09:51:37;;;;;;;3.58;1.10;;;;;;;24.87;45.70;100898.41;1684585;84;27333;-69
2022/07/17 09:54:09;;;;;;;3.12;1.37;;;;;;;24.68;44.69;100907.86;1684569;85;25162;-69
2022/07/17 09:56:37;;;;;;;2.75;1.40;;;;;;;24.34;44.34;100914.41;1684634;84;25585;-69
2022/07/17 09:59:10;;;;;;;1.75;1.02;;;;;;;23.83;44.53;100913.95;1684718;84;32340;-69
2022/07/17 10:01:41;;;;;;;2.58;1.32;;;;;;;23.52;44.99;100911.92;1684701;84;25621;-69
2022/07/17 10:04:08;;;;;;;3.62;1.40;;;;;;;23.18;45.22;100907.11;1684203;84;27418;-68
2022/07/17 10:06:34;;;;;;;3.20;1.70;;;;;;;23.02;46.72;100915.02;1684545;84;25591;-69
2022/07/17 10:09:02;;;;;;;2.42;0.95;;;;;;;23.40;47.00;100906.11;1684620;84;25426;-69
2022/07/17 10:11:39;;;;;;;3.92;1.02;;;;;;;23.66;47.06;100901.57;1684674;84;26406;-69
2022/07/17 10:14:10;;;;;;;2.95;0.98;;;;;;;24.16;46.06;100910.77;1684644;84;25499;-69
2022/07/17 10:16:38;;;;;;;3.30;1.10;;;;;;;24.28;44.92;100908.27;1684646;84;28029;-69
2022/07/17 10:19:21;;;;;;;3.77;1.25;;;;;;;24.21;45.22;100904.87;1680713;83;25633;-69
2022/07/17 10:21:57;;;;;;;5.03;1.07;;;;;;;24.03;43.64;100916.63;1629430;86;25668;-69
2022/07/17 10:24:25;;;;;;;3.60;1.25;;;;;;;23.71;43.90;100916.40;1629315;88;25713;-69
2022/07/17 10:26:51;;;;;;;5.78;1.27;;;;;;;23.46;44.24;100910.12;1629734;86;25508;-69
2022/07/17 10:29:39;;;;;;;3.95;1.00;;;;;;;23.29;44.32;100914.31;1629339;86;27313;-69
2022/07/17 10:32:18;;;;;;;1.90;1.22;;;;;;;23.58;45.63;100913.73;1629611;86;25472;-69
2022/07/17 10:34:49;;;;;;;2.15;1.00;;;;;;;24.45;44.44;100911.71;1629440;86;25647;-69
2022/07/17 10:37:38;;;;;;;1.72;1.25;;;;;;;24.68;43.58;100905.09;1629381;86;25658;-69
2022/07/17 10:40:13;;;;;;;2.40;1.47;;;;;;;24.51;42.10;100903.23;1629410;86;25471;-69
2022/07/17 10:43:04;;;;;;;2.45;1.10;;;;;;;24.33;42.52;100904.55;1629470;86;27339;-69
2022/07/17 10:45:43;;;;;;;1.47;1.15;;;;;;;24.21;42.86;100909.83;1649773;86;25478;-69
2022/07/17 10:48:14;;;;;;;2.47;1.02;;;;;;;24.02;42.49;100917.02;1646871;86;25657;-69
2022/07/17 10:50:51;;;;;;;3.80;1.00;;;;;;;23.77;42.42;100921.78;1631909;87;25622;-69
2022/07/17 10:53:33;;;;;;;2.92;1.25;;;;;;;23.42;42.11;100905.14;1630142;85;25717;-69
2022/07/17 10:56:10;;;;;;;1.92;1.30;;;;;;;23.08;42.86;100920.41;1632188;87;27328;-69
2022/07/17 10:58:41;;;;;;;2.37;1.00;;;;;;;22.84;42.94;100920.34;1657532;84;25752;-69
2022/07/17 11:01:15;;;;;;;1.22;0.88;;;;;;;22.65;43.45;100921.31;1695123;83;25606;-72
2022/07/17 11:03:54;;;;;;;2.08;1.02;;;;;;;22.52;43.61;100927.65;1695370;83;25607;-70
2022/07/17 11:06:30;;;;;;;3.77;1.22;;;;;;;22.39;43.48;100926.33;1688242;84;25277;-68
2022/07/17 11:09:04;;;;;;;1.22;1.00;;;;;;;22.20;43.54;100933.53;1695112;84;27768;-69
2022/07/17 11:11:51;;;;;;;2.25;1.15;;;;;;;22.06;43.74;100927.02;1695167;83;25529;-68
2022/07/17 11:14:24;;;;;;;3.10;1.05;;;;;;;21.96;43.89;100927.89;1690778;84;25564;-69
2022/07/17 11:16:57;;;;;;;1.32;1.02;;;;;;;21.91;43.94;100924.05;1693119;83;26301;-69
2022/07/17 11:19:40;;;;;;;2.95;1.10;;;;;;;21.86;44.03;100923.58;1701098;84;25593;-68
2022/07/17 11:22:10;;;;;;;4.67;2.65;;;;;;;21.81;44.04;100926.06;1682864;85;27363;-68
2022/07/17 11:24:48;;;;;;;2.42;1.07;;;;;;;21.77;44.07;100922.47;1685892;84;25601;-69
2022/07/17 11:27:25;;;;;;;1.15;1.05;;;;;;;21.75;43.90;100924.80;1679353;84;25562;-68
2022/07/17 11:29:56;;;;;;;2.15;1.22;;;;;;;21.74;43.93;100920.45;1680522;84;25876;-68
2022/07/17 11:32:24;;;;;;;4.87;1.25;;;;;;;21.72;43.65;100923.57;1680582;84;25508;-68